Главная страница
METAR-TAF:

METAR-TAF

Аэропорты :

Роскилле, Дания

широта: 55-35N, долгота: 012-08E, высота над уровнем моря: 44 м

Текущие метеонаблюдения

Эта сводка был подготовлена 39 минут назад, в 14:50 UTC
Ветер 12 Узел от восточно-юго-восточный
Температура 5°C
Влажность 75%
Давление 984 hPa
Видимость 10 км и более

METAR: EKRK 131450Z AUTO 12012KT 9999 OVC018/// 05/01 Q0984

Время: 16:29 (15:29 UTC)

Прогноз

Эта сводка был подготовлена 1 час и 20 минут назад, в 14:09 UTC
Прогноз действительный с 13-го 15 UTC до 13-го 24 UTC
Ветер 15 Узел от юго-восточный
Видимость 10 км и более
Рассеянная облачность на высоте 1800 фута
временами
С 13-го 15 UTC до 13-го 24 UTC
Рассеянная облачность на высоте 1200 фута

TAF: EKRK 131409Z 1315/1324 13015KT 9999 BKN018 TEMPO 1315/1324 BKN012

Метеонаблюдения и прогнозы для более 4000 аэропортов (сводки METAR и TAF).

Имеющиеся станции представлены на карте желтыми и красными точками.

Чтобы увидеть название станции, наведите на нее мышь.

Затем щелкните, чтобы увидеть метеонаблюдения и метеопрогнозы.

Управление картой: чтобы увеличить масштаб, щелкните зеленые кнопки с черным крестиком; чтобы уменьшить масштаб, щелкните зеленую кнопку с тире; для просмотра соседних карт щелкайте зеленые стрелки.


METAR-TAF: